createdAt,value
2023-01-30T00:06:16.474Z,5.02
2023-01-30T00:26:16.494Z,5.02
2023-01-30T00:46:16.283Z,5.02
2023-01-30T01:06:16.434Z,5.01
2023-01-30T01:26:16.482Z,5.01
2023-01-30T01:46:16.465Z,5.01
2023-01-30T02:06:16.375Z,5.01
2023-01-30T02:26:16.150Z,5.01
2023-01-30T02:46:16.363Z,5.01
2023-01-30T03:06:16.052Z,5.01
2023-01-30T03:46:16.326Z,5
2023-01-30T04:06:16.258Z,5
2023-01-30T04:26:16.387Z,5
2023-01-30T04:46:16.250Z,5
2023-01-30T05:06:16.212Z,4.99
2023-01-30T05:26:16.329Z,4.99
2023-01-30T05:46:15.959Z,4.99
2023-01-30T06:06:16.153Z,4.99
2023-01-30T06:26:16.180Z,4.98
2023-01-30T06:46:16.131Z,4.98
2023-01-30T07:06:16.105Z,4.98
2023-01-30T07:26:16.153Z,4.98
2023-01-30T07:46:16.051Z,4.97
2023-01-30T08:06:16.055Z,4.97
2023-01-30T08:26:16.059Z,4.97
2023-01-30T08:46:16.054Z,4.96
2023-01-30T09:06:15.978Z,4.96
2023-01-30T09:26:15.704Z,4.96
2023-01-30T09:46:15.719Z,4.96
2023-01-30T10:06:15.682Z,4.96
2023-01-30T10:26:15.760Z,4.96
2023-01-30T10:46:15.921Z,4.95
2023-01-30T11:46:15.869Z,4.95
2023-01-30T12:26:15.801Z,4.95
2023-01-30T12:46:15.919Z,4.95
2023-01-30T13:06:15.754Z,4.95
2023-01-30T13:26:15.749Z,4.95
2023-01-30T13:46:15.751Z,4.95
2023-01-30T14:06:15.687Z,4.95
2023-01-30T14:46:15.491Z,4.95
2023-01-30T15:06:15.631Z,4.95
2023-01-30T15:26:15.800Z,4.95
2023-01-30T15:46:15.649Z,4.95
2023-01-30T16:06:15.578Z,4.96
2023-01-30T16:26:15.591Z,4.96
2023-01-30T16:46:15.611Z,4.96
2023-01-30T17:06:15.483Z,4.96
2023-01-30T17:26:15.256Z,4.96
2023-01-30T17:46:15.208Z,4.97
2023-01-30T18:06:15.453Z,4.97
2023-01-30T18:26:15.478Z,4.97
2023-01-30T18:46:15.437Z,4.97
2023-01-30T19:06:15.401Z,4.98
2023-01-30T19:46:15.421Z,4.98
2023-01-30T20:06:15.356Z,4.99
2023-01-30T20:26:15.431Z,4.99
2023-01-30T20:46:15.339Z,4.99
2023-01-30T21:06:37.598Z,4.99
2023-01-30T21:26:15.337Z,5
2023-01-30T22:06:15.212Z,5
2023-01-30T22:26:15.215Z,5
2023-01-30T22:46:15.175Z,5
2023-01-30T23:06:14.957Z,5.01
2023-01-30T23:26:15.195Z,5.01
2023-01-30T23:46:15.134Z,5.01
